• Join FlightAware (Why Join?)
  • Login
  • US Flag 
03:23AM EDT


 

Airport Tracker/Info


-or-


 

Live Flight TrackerFlight Track Log ✈ SWA2130 ✈ 26-Apr-2013 ✈ KSFO - KLAX

Flight Track Log - Related Links

Times and Time Zones

All times are in EDT time to prevent confusion due to time zone crossing. See the SWA2130 flight status page for this flight to view local times or setup timezone preferences in your user account.

Time Position Orientation Groundspeed Altitude Reporting Facility
EDT Latitude Longitude Course Direction KTS MPH feet Rate Location/Type
06:53PM 37.6500 -122.3667 130° Southeast 170 196 1,600  Level Northern Cal TRACON
06:54PM 37.7086 -122.3614 North 245 282 3,900 2,520 Climbing Oakland Center
06:55PM 37.7331 -122.4336 293° West 270 311 6,900 2,940 Climbing Oakland Center
06:56PM 37.6892 -122.5186 237° Southwest 292 336 10,000 2,580 Climbing Oakland Center
06:58PM 37.6092 -122.5197 181° South 292 336 12,200 2,340 Climbing Oakland Center
06:59PM 37.0348 -121.8022 130° Southeast  Level FlightAware Approximate
06:59PM 37.5219 -122.5133 177° South 311 358 14,900  Level Oakland Center
07:00PM 37.4225 -122.4311 147° Southeast 373 429 18,300 3,120 Climbing Oakland Center
07:01PM 37.3528 -122.3303 131° Southeast 385 443 21,300 2,820 Climbing Oakland Center
07:02PM 37.2842 -122.2292 130° Southeast 385 443 24,100 2,460 Climbing Oakland Center
07:03PM 37.2100 -122.1253 132° Southeast 398 458 26,400 2,160 Climbing Oakland Center
07:04PM 37.1328 -122.0156 131° Southeast 416 479 28,600 2,040 Climbing Oakland Center
07:05PM 37.0542 -121.9042 131° Southeast 427 491 30,600 1,980 Climbing Oakland Center
07:06PM 36.9733 -121.7914 132° Southeast 435 501 32,700 2,040 Climbing Oakland Center
07:07PM 36.8756 -121.6592 133° Southeast 432 497 34,900 1,800 Climbing Oakland Center
07:08PM 36.8047 -121.5608 132° Southeast 436 502 36,400 1,440 Climbing Oakland Center
07:09PM 36.7069 -121.4247 132° Southeast 439 505 37,900 1,260 Climbing Oakland Center
07:10PM 36.6261 -121.3103 131° Southeast 440 506 39,000 480 Climbing Oakland Center
07:11PM 36.5411 -121.1928 132° Southeast 454 522 39,000  Level Oakland Center
07:12PM 36.4567 -121.0739 131° Southeast 458 527 39,000  Level Oakland Center
07:13PM 36.3708 -120.9589 133° Southeast 456 525 39,000  Level Oakland Center
07:14PM 36.2844 -120.8400 132° Southeast 460 529 39,000  Level Oakland Center
07:15PM 36.1992 -120.7222 132° Southeast 460 529 39,000  Level Oakland Center
07:16PM 36.1133 -120.6064 133° Southeast 457 526 39,000  Level Oakland Center
07:17PM 36.0272 -120.4875 132° Southeast 461 531 39,000  Level Oakland Center
07:18PM 35.9233 -120.3494 133° Southeast 455 524 39,000  Level Oakland Center
07:19PM 35.8369 -120.2328 132° Southeast 458 527 39,000  Level Oakland Center
07:20PM 35.7503 -120.1183 133° Southeast 455 524 39,000  Level Oakland Center
07:21PM 35.6636 -120.0006 132° Southeast 457 526 39,000 -360 Level Oakland Center
07:22PM 35.5614 -119.9050 143° Southeast 452 520 38,300 -840 Descending Oakland Center
07:23PM 35.4542 -119.8128 145° Southeast 461 531 37,400 -960 Descending Oakland Center
07:24PM 35.3503 -119.7206 144° Southeast 462 532 36,400 -1,380 Descending Los Angeles Center
07:25PM 35.2456 -119.6331 146° Southeast 455 524 34,700 -1,740 Descending Los Angeles Center
07:26PM 35.1400 -119.5425 145° Southeast 460 529 32,800 -1,860 Descending Los Angeles Center
07:27PM 35.0317 -119.4500 145° Southeast 471 542 30,900 -2,040 Descending Los Angeles Center
07:29PM 34.8028 -119.2556 145° Southeast 452 520 26,600 -2,160 Descending Oakland Center
07:30PM 34.7050 -119.1747 146° Southeast 433 498 24,400 -2,100 Descending Oakland Center
07:31PM 34.6167 -119.0986 145° Southeast 416 479 22,300 -2,220 Descending Los Angeles Center
07:32PM 34.5092 -119.0100 146° Southeast 382 440 19,800 -2,220 Descending Los Angeles Center
07:33PM 34.4228 -118.9383 146° Southeast 373 429 17,800 -2,040 Descending Los Angeles Center
07:35PM 34.3367 -118.8722 148° Southeast 364 419 15,700 -2,040 Descending Los Angeles Center
07:36PM 34.2406 -118.8394 164° South 357 411 13,600 -1,980 Descending Los Angeles Center
07:37PM 34.1478 -118.8053 163° South 349 402 11,700 -1,740 Descending Los Angeles Center
07:38PM 34.0478 -118.7578 159° South 327 376 10,000 -840 Descending Los Angeles Center
07:39PM 34.0297 -118.6667 103° East 281 323 10,000 -840 Level Los Angeles Center
07:40PM 34.0200 -118.5672 97° East 279 321 8,300 -1,500 Descending Los Angeles Center
07:41PM 34.0117 -118.4758 96° East 275 316 7,000 -840 Descending Los Angeles Center
07:42PM 34.0181 -118.3956 84° East 264 304 6,600 -720 Descending Los Angeles Center
07:43PM 34.0267 -118.3125 83° East 253 291 5,600 -900 Descending Los Angeles Center
07:44PM 34.0278 -118.2414 89° East 225 259 4,800 -1,080 Descending Los Angeles Center
07:45PM 33.9850 -118.2194 157° South 182 209 3,400 -1,260 Descending Los Angeles Center
07:46PM 33.9658 -118.2678 244° Southwest 170 196 2,300 -1,020 Descending Los Angeles Center
07:47PM 33.9606 -118.3242 264° West 171 197 1,400 -780 Descending Los Angeles Center
07:48PM 33.9567 -118.3692 264° West 153 176 700 -600 Descending Los Angeles Center
07:49PM 33.9508 -118.4122 261° West 136 157 200 -540 Descending Los Angeles Center
07:51PM 33.9425 -118.4081 228° Southwest  Level Estimated